ENAL

Ålesund Airport

Ålesund, Norway
METAR ENAL 271150Z 06007KT 010V100 CAVOK 17/10 Q1028
Observed Flight Rules
May-27 @ 11:50 UTC (16 minutes ago) Visual Flight Rules
Wind Visibility Clouds
60° at 7 knots 10,000+ meters
  • Clear skies
Temperatures Readings
Current 17°C / 63°F
Dewpoint 10°C / 50°F
Humidity 64%
Altimeter 30.35" Hg
Pressure 1028 hPa
Elevation 22
METAR ENAL 271150Z 06007KT 010V100 CAVOK 17/10 Q1028
Observed Flight Rules
May-27 @ 11:50 UTC
(16 minutes ago)
VFR
Wind Visibility
60° at 7 knots 10,000+ meters
Clouds
  • Clear skies
Temperature Dewpoint
17°C / 63°F 10°C / 50°F
Humidity Altimeter Pressure
64% 30.35" Hg 1028 hPa